sensor_id;sensor_type;location;lat;lon;timestamp;P1;durP1;ratioP1;P2;durP2;ratioP2
68653;SDS011;55636;51.108;13.622;2023-07-20T00:00:08;3.20;;;2.70;;
68653;SDS011;55636;51.108;13.622;2023-07-20T00:01:14;3.55;;;2.85;;
68653;SDS011;55636;51.108;13.622;2023-07-20T00:02:16;2.95;;;2.65;;
68653;SDS011;55636;51.108;13.622;2023-07-20T00:03:19;2.75;;;2.55;;
68653;SDS011;55636;51.108;13.622;2023-07-20T00:04:25;5.35;;;2.55;;
68653;SDS011;55636;51.108;13.622;2023-07-20T00:05:28;3.05;;;2.53;;
68653;SDS011;55636;51.108;13.622;2023-07-20T00:06:30;3.22;;;2.50;;
68653;SDS011;55636;51.108;13.622;2023-07-20T00:07:32;2.90;;;2.50;;
68653;SDS011;55636;51.108;13.622;2023-07-20T00:08:35;2.85;;;2.53;;
68653;SDS011;55636;51.108;13.622;2023-07-20T00:09:38;2.53;;;2.33;;
68653;SDS011;55636;51.108;13.622;2023-07-20T00:10:40;2.50;;;2.30;;
68653;SDS011;55636;51.108;13.622;2023-07-20T00:11:50;2.50;;;2.30;;
68653;SDS011;55636;51.108;13.622;2023-07-20T00:12:53;3.00;;;2.53;;
68653;SDS011;55636;51.108;13.622;2023-07-20T00:13:55;2.70;;;2.50;;
68653;SDS011;55636;51.108;13.622;2023-07-20T00:14:58;2.67;;;2.17;;
68653;SDS011;55636;51.108;13.622;2023-07-20T00:16:02;3.00;;;2.40;;
68653;SDS011;55636;51.108;13.622;2023-07-20T00:17:04;3.00;;;2.40;;
68653;SDS011;55636;51.108;13.622;2023-07-20T00:18:07;3.38;;;2.50;;
68653;SDS011;55636;51.108;13.622;2023-07-20T00:19:09;3.55;;;2.47;;
68653;SDS011;55636;51.108;13.622;2023-07-20T00:20:12;2.58;;;2.38;;
68653;SDS011;55636;51.108;13.622;2023-07-20T00:21:15;2.92;;;2.47;;
68653;SDS011;55636;51.108;13.622;2023-07-20T00:22:18;2.58;;;2.38;;
68653;SDS011;55636;51.108;13.622;2023-07-20T00:23:20;2.65;;;2.17;;
68653;SDS011;55636;51.108;13.622;2023-07-20T00:24:25;2.60;;;2.40;;
68653;SDS011;55636;51.108;13.622;2023-07-20T00:25:27;2.63;;;2.40;;
68653;SDS011;55636;51.108;13.622;2023-07-20T00:26:30;4.05;;;2.50;;
68653;SDS011;55636;51.108;13.622;2023-07-20T00:27:33;2.47;;;2.28;;
68653;SDS011;55636;51.108;13.622;2023-07-20T00:28:35;2.60;;;2.40;;
68653;SDS011;55636;51.108;13.622;2023-07-20T00:29:37;2.60;;;2.40;;
68653;SDS011;55636;51.108;13.622;2023-07-20T00:30:40;2.40;;;2.20;;
68653;SDS011;55636;51.108;13.622;2023-07-20T00:31:45;5.55;;;2.28;;
68653;SDS011;55636;51.108;13.622;2023-07-20T00:32:49;3.30;;;2.42;;
68653;SDS011;55636;51.108;13.622;2023-07-20T00:33:51;4.00;;;2.08;;
68653;SDS011;55636;51.108;13.622;2023-07-20T00:34:54;2.65;;;2.22;;
68653;SDS011;55636;51.108;13.622;2023-07-20T00:35:57;4.82;;;2.70;;
68653;SDS011;55636;51.108;13.622;2023-07-20T00:37:00;2.38;;;2.00;;
68653;SDS011;55636;51.108;13.622;2023-07-20T00:38:02;2.50;;;2.30;;
68653;SDS011;55636;51.108;13.622;2023-07-20T00:39:04;2.33;;;2.13;;
68653;SDS011;55636;51.108;13.622;2023-07-20T00:40:07;3.88;;;2.50;;
68653;SDS011;55636;51.108;13.622;2023-07-20T00:41:09;2.50;;;2.30;;
68653;SDS011;55636;51.108;13.622;2023-07-20T00:42:12;2.20;;;2.00;;
68653;SDS011;55636;51.108;13.622;2023-07-20T00:43:14;2.08;;;1.90;;
68653;SDS011;55636;51.108;13.622;2023-07-20T00:44:18;2.00;;;1.90;;
68653;SDS011;55636;51.108;13.622;2023-07-20T00:45:21;2.65;;;2.00;;
68653;SDS011;55636;51.108;13.622;2023-07-20T00:46:23;2.70;;;2.00;;
68653;SDS011;55636;51.108;13.622;2023-07-20T00:47:29;3.33;;;2.15;;
68653;SDS011;55636;51.108;13.622;2023-07-20T00:48:33;3.97;;;2.05;;
68653;SDS011;55636;51.108;13.622;2023-07-20T00:49:37;2.45;;;1.90;;
68653;SDS011;55636;51.108;13.622;2023-07-20T00:50:41;2.28;;;1.77;;
68653;SDS011;55636;51.108;13.622;2023-07-20T00:51:44;2.00;;;1.60;;
68653;SDS011;55636;51.108;13.622;2023-07-20T00:52:47;2.00;;;1.80;;
68653;SDS011;55636;51.108;13.622;2023-07-20T00:53:53;3.35;;;1.80;;
68653;SDS011;55636;51.108;13.622;2023-07-20T00:54:55;1.90;;;1.80;;
68653;SDS011;55636;51.108;13.622;2023-07-20T00:55:58;3.35;;;1.70;;
68653;SDS011;55636;51.108;13.622;2023-07-20T00:57:01;2.28;;;1.77;;
68653;SDS011;55636;51.108;13.622;2023-07-20T00:58:04;2.47;;;1.70;;
68653;SDS011;55636;51.108;13.622;2023-07-20T00:59:09;3.17;;;1.58;;
68653;SDS011;55636;51.108;13.622;2023-07-20T01:00:12;2.78;;;1.85;;
68653;SDS011;55636;51.108;13.622;2023-07-20T01:01:16;1.70;;;1.60;;
68653;SDS011;55636;51.108;13.622;2023-07-20T01:02:18;2.70;;;1.60;;
68653;SDS011;55636;51.108;13.622;2023-07-20T01:03:21;2.50;;;1.60;;
68653;SDS011;55636;51.108;13.622;2023-07-20T01:04:25;1.50;;;1.40;;
68653;SDS011;55636;51.108;13.622;2023-07-20T01:05:35;2.20;;;1.50;;
68653;SDS011;55636;51.108;13.622;2023-07-20T01:08:04;3.15;;;1.50;;
68653;SDS011;55636;51.108;13.622;2023-07-20T01:10:20;1.50;;;1.40;;
68653;SDS011;55636;51.108;13.622;2023-07-20T01:11:23;2.40;;;1.50;;
68653;SDS011;55636;51.108;13.622;2023-07-20T01:12:43;4.70;;;1.30;;
68653;SDS011;55636;51.108;13.622;2023-07-20T01:13:51;1.77;;;1.30;;
68653;SDS011;55636;51.108;13.622;2023-07-20T01:14:54;2.45;;;1.52;;
68653;SDS011;55636;51.108;13.622;2023-07-20T01:15:57;4.47;;;1.42;;
68653;SDS011;55636;51.108;13.622;2023-07-20T01:17:03;1.73;;;1.40;;
68653;SDS011;55636;51.108;13.622;2023-07-20T01:18:06;3.60;;;1.50;;
68653;SDS011;55636;51.108;13.622;2023-07-20T01:19:09;1.50;;;1.40;;
68653;SDS011;55636;51.108;13.622;2023-07-20T01:20:12;2.05;;;1.17;;
68653;SDS011;55636;51.108;13.622;2023-07-20T01:21:19;2.17;;;1.30;;
68653;SDS011;55636;51.108;13.622;2023-07-20T01:23:53;2.40;;;1.25;;
68653;SDS011;55636;51.108;13.622;2023-07-20T01:32:28;1.70;;;1.50;;
68653;SDS011;55636;51.108;13.622;2023-07-20T01:33:33;1.83;;;1.60;;
68653;SDS011;55636;51.108;13.622;2023-07-20T01:34:36;3.35;;;1.70;;
68653;SDS011;55636;51.108;13.622;2023-07-20T01:35:41;2.22;;;1.40;;
68653;SDS011;55636;51.108;13.622;2023-07-20T01:36:47;1.92;;;1.63;;
68653;SDS011;55636;51.108;13.622;2023-07-20T01:37:52;2.47;;;1.67;;
68653;SDS011;55636;51.108;13.622;2023-07-20T01:38:57;2.53;;;1.95;;
68653;SDS011;55636;51.108;13.622;2023-07-20T01:40:00;3.78;;;1.73;;
68653;SDS011;55636;51.108;13.622;2023-07-20T01:41:03;2.75;;;1.60;;
68653;SDS011;55636;51.108;13.622;2023-07-20T01:42:06;3.45;;;1.98;;
68653;SDS011;55636;51.108;13.622;2023-07-20T01:43:08;2.70;;;1.70;;
68653;SDS011;55636;51.108;13.622;2023-07-20T01:44:12;2.78;;;1.95;;
68653;SDS011;55636;51.108;13.622;2023-07-20T01:45:15;3.25;;;1.80;;
68653;SDS011;55636;51.108;13.622;2023-07-20T01:46:17;3.63;;;1.77;;
68653;SDS011;55636;51.108;13.622;2023-07-20T01:47:19;2.20;;;2.00;;
68653;SDS011;55636;51.108;13.622;2023-07-20T01:48:22;4.05;;;2.03;;
68653;SDS011;55636;51.108;13.622;2023-07-20T01:49:24;4.70;;;2.00;;
68653;SDS011;55636;51.108;13.622;2023-07-20T01:50:27;2.25;;;1.90;;
68653;SDS011;55636;51.108;13.622;2023-07-20T01:51:29;2.90;;;1.98;;
68653;SDS011;55636;51.108;13.622;2023-07-20T01:52:32;2.47;;;2.00;;
68653;SDS011;55636;51.108;13.622;2023-07-20T01:53:34;2.80;;;1.98;;
68653;SDS011;55636;51.108;13.622;2023-07-20T01:54:36;4.05;;;1.92;;
68653;SDS011;55636;51.108;13.622;2023-07-20T01:55:39;2.78;;;1.80;;
68653;SDS011;55636;51.108;13.622;2023-07-20T01:56:41;2.40;;;1.70;;
68653;SDS011;55636;51.108;13.622;2023-07-20T01:57:44;2.13;;;1.88;;
68653;SDS011;55636;51.108;13.622;2023-07-20T01:58:46;3.85;;;1.90;;
68653;SDS011;55636;51.108;13.622;2023-07-20T01:59:49;2.55;;;2.03;;
68653;SDS011;55636;51.108;13.622;2023-07-20T02:00:51;3.78;;;2.28;;
68653;SDS011;55636;51.108;13.622;2023-07-20T02:01:54;3.97;;;2.38;;
68653;SDS011;55636;51.108;13.622;2023-07-20T02:02:56;3.72;;;1.92;;
68653;SDS011;55636;51.108;13.622;2023-07-20T02:03:59;3.33;;;2.15;;
68653;SDS011;55636;51.108;13.622;2023-07-20T02:05:01;4.20;;;2.20;;
68653;SDS011;55636;51.108;13.622;2023-07-20T02:06:04;6.28;;;2.53;;
68653;SDS011;55636;51.108;13.622;2023-07-20T02:07:06;3.25;;;2.40;;
68653;SDS011;55636;51.108;13.622;2023-07-20T02:08:08;2.35;;;2.05;;
68653;SDS011;55636;51.108;13.622;2023-07-20T02:09:11;2.58;;;2.25;;
68653;SDS011;55636;51.108;13.622;2023-07-20T02:10:15;4.05;;;2.20;;
68653;SDS011;55636;51.108;13.622;2023-07-20T02:11:18;4.82;;;2.38;;
68653;SDS011;55636;51.108;13.622;2023-07-20T02:12:21;6.18;;;2.40;;
68653;SDS011;55636;51.108;13.622;2023-07-20T02:13:23;6.18;;;2.60;;
68653;SDS011;55636;51.108;13.622;2023-07-20T02:14:26;4.25;;;2.53;;
68653;SDS011;55636;51.108;13.622;2023-07-20T02:15:28;5.40;;;2.50;;
68653;SDS011;55636;51.108;13.622;2023-07-20T02:16:30;3.67;;;2.45;;
68653;SDS011;55636;51.108;13.622;2023-07-20T02:17:33;3.92;;;2.70;;
68653;SDS011;55636;51.108;13.622;2023-07-20T02:18:36;4.93;;;2.42;;
68653;SDS011;55636;51.108;13.622;2023-07-20T02:19:40;3.72;;;2.47;;
68653;SDS011;55636;51.108;13.622;2023-07-20T02:20:43;3.15;;;2.63;;
68653;SDS011;55636;51.108;13.622;2023-07-20T02:21:45;4.22;;;2.50;;
68653;SDS011;55636;51.108;13.622;2023-07-20T02:22:47;4.25;;;2.72;;
68653;SDS011;55636;51.108;13.622;2023-07-20T02:23:50;4.15;;;2.40;;
68653;SDS011;55636;51.108;13.622;2023-07-20T02:24:52;3.95;;;2.40;;
68653;SDS011;55636;51.108;13.622;2023-07-20T02:25:55;3.40;;;2.65;;
68653;SDS011;55636;51.108;13.622;2023-07-20T02:26:58;6.22;;;2.75;;
68653;SDS011;55636;51.108;13.622;2023-07-20T02:28:00;5.25;;;2.88;;
68653;SDS011;55636;51.108;13.622;2023-07-20T02:29:03;5.28;;;2.55;;
68653;SDS011;55636;51.108;13.622;2023-07-20T02:30:07;3.13;;;2.30;;
68653;SDS011;55636;51.108;13.622;2023-07-20T02:31:11;3.30;;;2.58;;
68653;SDS011;55636;51.108;13.622;2023-07-20T02:32:13;5.55;;;2.97;;
68653;SDS011;55636;51.108;13.622;2023-07-20T02:33:16;6.22;;;2.85;;
68653;SDS011;55636;51.108;13.622;2023-07-20T02:34:18;4.88;;;2.92;;
68653;SDS011;55636;51.108;13.622;2023-07-20T02:35:21;4.72;;;2.72;;
68653;SDS011;55636;51.108;13.622;2023-07-20T02:36:23;5.95;;;3.13;;
68653;SDS011;55636;51.108;13.622;2023-07-20T02:37:26;4.35;;;3.20;;
68653;SDS011;55636;51.108;13.622;2023-07-20T02:38:28;5.35;;;3.08;;
68653;SDS011;55636;51.108;13.622;2023-07-20T02:39:31;3.83;;;2.53;;
68653;SDS011;55636;51.108;13.622;2023-07-20T02:40:34;6.55;;;3.22;;
68653;SDS011;55636;51.108;13.622;2023-07-20T02:41:36;6.68;;;3.08;;
68653;SDS011;55636;51.108;13.622;2023-07-20T02:42:38;5.97;;;3.30;;
68653;SDS011;55636;51.108;13.622;2023-07-20T02:43:41;4.05;;;2.60;;
68653;SDS011;55636;51.108;13.622;2023-07-20T02:44:45;6.55;;;3.20;;
68653;SDS011;55636;51.108;13.622;2023-07-20T02:45:48;4.47;;;3.00;;
68653;SDS011;55636;51.108;13.622;2023-07-20T02:46:52;3.80;;;3.10;;
68653;SDS011;55636;51.108;13.622;2023-07-20T02:47:54;4.65;;;3.28;;
68653;SDS011;55636;51.108;13.622;2023-07-20T02:48:58;5.55;;;3.40;;
68653;SDS011;55636;51.108;13.622;2023-07-20T02:50:00;4.93;;;3.70;;
68653;SDS011;55636;51.108;13.622;2023-07-20T02:51:03;5.72;;;3.65;;
68653;SDS011;55636;51.108;13.622;2023-07-20T02:52:06;5.60;;;3.60;;
68653;SDS011;55636;51.108;13.622;2023-07-20T02:53:09;4.57;;;3.40;;
68653;SDS011;55636;51.108;13.622;2023-07-20T02:54:11;6.85;;;3.58;;
68653;SDS011;55636;51.108;13.622;2023-07-20T02:55:14;5.05;;;3.53;;
68653;SDS011;55636;51.108;13.622;2023-07-20T02:56:17;4.72;;;3.13;;
68653;SDS011;55636;51.108;13.622;2023-07-20T02:57:20;4.82;;;3.38;;
68653;SDS011;55636;51.108;13.622;2023-07-20T02:58:24;7.25;;;3.47;;
68653;SDS011;55636;51.108;13.622;2023-07-20T02:59:26;7.55;;;3.85;;
68653;SDS011;55636;51.108;13.622;2023-07-20T03:00:29;4.38;;;3.40;;
68653;SDS011;55636;51.108;13.622;2023-07-20T03:01:31;6.38;;;3.90;;
68653;SDS011;55636;51.108;13.622;2023-07-20T03:02:34;6.43;;;3.90;;
68653;SDS011;55636;51.108;13.622;2023-07-20T03:03:36;5.68;;;3.80;;
68653;SDS011;55636;51.108;13.622;2023-07-20T03:04:41;4.25;;;3.85;;
68653;SDS011;55636;51.108;13.622;2023-07-20T03:05:43;5.10;;;3.80;;
68653;SDS011;55636;51.108;13.622;2023-07-20T03:06:46;4.75;;;3.83;;
68653;SDS011;55636;51.108;13.622;2023-07-20T03:07:48;7.35;;;4.20;;
68653;SDS011;55636;51.108;13.622;2023-07-20T03:08:51;7.80;;;4.43;;
68653;SDS011;55636;51.108;13.622;2023-07-20T03:09:55;4.78;;;3.80;;
68653;SDS011;55636;51.108;13.622;2023-07-20T03:10:57;5.00;;;4.00;;
68653;SDS011;55636;51.108;13.622;2023-07-20T03:12:00;8.15;;;4.20;;
68653;SDS011;55636;51.108;13.622;2023-07-20T03:13:03;6.22;;;4.30;;
68653;SDS011;55636;51.108;13.622;2023-07-20T03:14:06;4.47;;;4.07;;
68653;SDS011;55636;51.108;13.622;2023-07-20T03:15:08;6.93;;;3.85;;
68653;SDS011;55636;51.108;13.622;2023-07-20T03:16:12;6.97;;;4.05;;
68653;SDS011;55636;51.108;13.622;2023-07-20T03:17:17;7.25;;;4.25;;
68653;SDS011;55636;51.108;13.622;2023-07-20T03:18:20;6.72;;;4.18;;
68653;SDS011;55636;51.108;13.622;2023-07-20T03:19:23;5.10;;;3.90;;
68653;SDS011;55636;51.108;13.622;2023-07-20T03:20:26;7.70;;;4.47;;
68653;SDS011;55636;51.108;13.622;2023-07-20T03:21:28;4.40;;;3.90;;
68653;SDS011;55636;51.108;13.622;2023-07-20T03:22:30;5.43;;;4.18;;
68653;SDS011;55636;51.108;13.622;2023-07-20T03:23:33;6.03;;;4.35;;
68653;SDS011;55636;51.108;13.622;2023-07-20T03:24:36;6.03;;;4.32;;
68653;SDS011;55636;51.108;13.622;2023-07-20T03:25:39;6.63;;;4.30;;
68653;SDS011;55636;51.108;13.622;2023-07-20T03:26:42;5.57;;;4.07;;
68653;SDS011;55636;51.108;13.622;2023-07-20T03:27:45;7.15;;;4.30;;
68653;SDS011;55636;51.108;13.622;2023-07-20T03:28:47;6.03;;;4.47;;
68653;SDS011;55636;51.108;13.622;2023-07-20T03:29:49;8.68;;;4.40;;
68653;SDS011;55636;51.108;13.622;2023-07-20T03:30:53;4.72;;;3.85;;
68653;SDS011;55636;51.108;13.622;2023-07-20T03:31:56;5.35;;;4.28;;
68653;SDS011;55636;51.108;13.622;2023-07-20T03:33:01;5.72;;;3.75;;
68653;SDS011;55636;51.108;13.622;2023-07-20T03:34:06;6.78;;;3.97;;
68653;SDS011;55636;51.108;13.622;2023-07-20T03:35:11;6.80;;;4.47;;
68653;SDS011;55636;51.108;13.622;2023-07-20T03:36:14;6.35;;;4.07;;
68653;SDS011;55636;51.108;13.622;2023-07-20T03:37:17;5.40;;;4.30;;
68653;SDS011;55636;51.108;13.622;2023-07-20T03:38:20;4.45;;;4.05;;
68653;SDS011;55636;51.108;13.622;2023-07-20T03:39:22;6.07;;;4.13;;
68653;SDS011;55636;51.108;13.622;2023-07-20T03:40:25;8.88;;;4.60;;
68653;SDS011;55636;51.108;13.622;2023-07-20T03:41:27;4.82;;;4.15;;
68653;SDS011;55636;51.108;13.622;2023-07-20T03:42:29;6.53;;;4.20;;
68653;SDS011;55636;51.108;13.622;2023-07-20T03:43:32;5.43;;;4.22;;
68653;SDS011;55636;51.108;13.622;2023-07-20T03:44:34;5.28;;;4.07;;
68653;SDS011;55636;51.108;13.622;2023-07-20T03:45:37;4.85;;;4.20;;
68653;SDS011;55636;51.108;13.622;2023-07-20T03:46:39;7.28;;;4.07;;
68653;SDS011;55636;51.108;13.622;2023-07-20T03:47:42;4.63;;;4.13;;
68653;SDS011;55636;51.108;13.622;2023-07-20T03:48:46;5.00;;;4.25;;
68653;SDS011;55636;51.108;13.622;2023-07-20T03:49:49;5.35;;;3.97;;
68653;SDS011;55636;51.108;13.622;2023-07-20T03:50:52;6.88;;;4.20;;
68653;SDS011;55636;51.108;13.622;2023-07-20T03:51:56;7.00;;;4.30;;
68653;SDS011;55636;51.108;13.622;2023-07-20T03:52:58;6.63;;;4.30;;
68653;SDS011;55636;51.108;13.622;2023-07-20T03:54:01;5.47;;;4.47;;
68653;SDS011;55636;51.108;13.622;2023-07-20T03:55:04;6.45;;;4.63;;
68653;SDS011;55636;51.108;13.622;2023-07-20T03:56:08;6.05;;;4.10;;
68653;SDS011;55636;51.108;13.622;2023-07-20T03:57:10;6.45;;;4.55;;
68653;SDS011;55636;51.108;13.622;2023-07-20T03:58:13;7.03;;;4.50;;
68653;SDS011;55636;51.108;13.622;2023-07-20T03:59:16;5.82;;;4.30;;
68653;SDS011;55636;51.108;13.622;2023-07-20T04:00:18;6.32;;;4.10;;
68653;SDS011;55636;51.108;13.622;2023-07-20T04:01:20;6.45;;;4.35;;
68653;SDS011;55636;51.108;13.622;2023-07-20T04:02:23;8.07;;;4.47;;
68653;SDS011;55636;51.108;13.622;2023-07-20T04:03:26;7.93;;;4.25;;
68653;SDS011;55636;51.108;13.622;2023-07-20T04:04:29;5.97;;;4.00;;
68653;SDS011;55636;51.108;13.622;2023-07-20T04:05:31;6.53;;;4.05;;
68653;SDS011;55636;51.108;13.622;2023-07-20T04:06:34;6.00;;;3.90;;
68653;SDS011;55636;51.108;13.622;2023-07-20T04:07:38;8.18;;;4.40;;
68653;SDS011;55636;51.108;13.622;2023-07-20T04:08:40;7.00;;;4.32;;
68653;SDS011;55636;51.108;13.622;2023-07-20T04:09:44;7.72;;;4.13;;
68653;SDS011;55636;51.108;13.622;2023-07-20T04:10:46;7.80;;;4.22;;
68653;SDS011;55636;51.108;13.622;2023-07-20T04:11:49;6.97;;;4.18;;
68653;SDS011;55636;51.108;13.622;2023-07-20T04:12:51;7.00;;;4.40;;
68653;SDS011;55636;51.108;13.622;2023-07-20T04:13:54;6.35;;;4.03;;
68653;SDS011;55636;51.108;13.622;2023-07-20T04:14:58;6.10;;;4.20;;
68653;SDS011;55636;51.108;13.622;2023-07-20T04:16:01;6.60;;;4.30;;
68653;SDS011;55636;51.108;13.622;2023-07-20T04:17:04;6.93;;;4.10;;
68653;SDS011;55636;51.108;13.622;2023-07-20T04:18:07;5.22;;;4.00;;
68653;SDS011;55636;51.108;13.622;2023-07-20T04:19:09;4.60;;;3.88;;
68653;SDS011;55636;51.108;13.622;2023-07-20T04:20:12;5.72;;;4.07;;
68653;SDS011;55636;51.108;13.622;2023-07-20T04:21:15;6.57;;;4.00;;
68653;SDS011;55636;51.108;13.622;2023-07-20T04:22:17;6.40;;;4.07;;
68653;SDS011;55636;51.108;13.622;2023-07-20T04:23:20;7.95;;;4.18;;
68653;SDS011;55636;51.108;13.622;2023-07-20T04:24:22;7.55;;;4.20;;
68653;SDS011;55636;51.108;13.622;2023-07-20T04:25:24;7.25;;;4.25;;
68653;SDS011;55636;51.108;13.622;2023-07-20T04:26:28;6.03;;;4.00;;
68653;SDS011;55636;51.108;13.622;2023-07-20T04:27:30;6.18;;;4.00;;
68653;SDS011;55636;51.108;13.622;2023-07-20T04:28:33;5.78;;;4.00;;
68653;SDS011;55636;51.108;13.622;2023-07-20T04:29:36;8.27;;;4.40;;
68653;SDS011;55636;51.108;13.622;2023-07-20T04:30:39;7.47;;;4.30;;
68653;SDS011;55636;51.108;13.622;2023-07-20T04:31:45;7.88;;;4.35;;
68653;SDS011;55636;51.108;13.622;2023-07-20T04:32:47;5.93;;;3.97;;
68653;SDS011;55636;51.108;13.622;2023-07-20T04:33:53;7.70;;;4.28;;
68653;SDS011;55636;51.108;13.622;2023-07-20T04:34:55;7.50;;;3.95;;
68653;SDS011;55636;51.108;13.622;2023-07-20T04:35:58;7.43;;;3.95;;
68653;SDS011;55636;51.108;13.622;2023-07-20T04:37:04;7.90;;;4.47;;
68653;SDS011;55636;51.108;13.622;2023-07-20T04:38:06;7.50;;;4.40;;
68653;SDS011;55636;51.108;13.622;2023-07-20T04:39:10;8.43;;;4.03;;
68653;SDS011;55636;51.108;13.622;2023-07-20T04:40:27;6.78;;;4.10;;
68653;SDS011;55636;51.108;13.622;2023-07-20T04:41:29;7.57;;;4.50;;
68653;SDS011;55636;51.108;13.622;2023-07-20T04:42:35;7.70;;;4.20;;
68653;SDS011;55636;51.108;13.622;2023-07-20T04:43:40;7.53;;;4.20;;
68653;SDS011;55636;51.108;13.622;2023-07-20T04:44:44;5.13;;;3.92;;
68653;SDS011;55636;51.108;13.622;2023-07-20T04:45:47;6.30;;;4.10;;
68653;SDS011;55636;51.108;13.622;2023-07-20T04:46:49;7.55;;;4.80;;
68653;SDS011;55636;51.108;13.622;2023-07-20T04:47:53;7.57;;;4.10;;
68653;SDS011;55636;51.108;13.622;2023-07-20T04:48:57;9.90;;;4.05;;
68653;SDS011;55636;51.108;13.622;2023-07-20T04:50:01;7.38;;;3.90;;
68653;SDS011;55636;51.108;13.622;2023-07-20T04:51:06;5.60;;;4.15;;
68653;SDS011;55636;51.108;13.622;2023-07-20T04:52:09;5.80;;;4.47;;
68653;SDS011;55636;51.108;13.622;2023-07-20T04:53:11;8.70;;;4.18;;
68653;SDS011;55636;51.108;13.622;2023-07-20T04:54:15;5.68;;;4.10;;
68653;SDS011;55636;51.108;13.622;2023-07-20T04:55:19;5.30;;;4.07;;
68653;SDS011;55636;51.108;13.622;2023-07-20T04:56:22;7.13;;;4.07;;
68653;SDS011;55636;51.108;13.622;2023-07-20T04:57:29;8.43;;;4.68;;
68653;SDS011;55636;51.108;13.622;2023-07-20T04:58:31;8.15;;;4.45;;
68653;SDS011;55636;51.108;13.622;2023-07-20T04:59:34;6.60;;;4.13;;
68653;SDS011;55636;51.108;13.622;2023-07-20T05:00:37;8.93;;;4.82;;
68653;SDS011;55636;51.108;13.622;2023-07-20T05:01:41;10.02;;;4.40;;
68653;SDS011;55636;51.108;13.622;2023-07-20T05:02:43;6.63;;;4.45;;
68653;SDS011;55636;51.108;13.622;2023-07-20T05:03:46;8.35;;;3.95;;
68653;SDS011;55636;51.108;13.622;2023-07-20T05:04:49;7.15;;;4.30;;
68653;SDS011;55636;51.108;13.622;2023-07-20T05:05:51;8.80;;;4.57;;
68653;SDS011;55636;51.108;13.622;2023-07-20T05:06:54;8.80;;;3.92;;
68653;SDS011;55636;51.108;13.622;2023-07-20T05:07:56;6.70;;;4.32;;
68653;SDS011;55636;51.108;13.622;2023-07-20T05:08:59;6.93;;;4.50;;
68653;SDS011;55636;51.108;13.622;2023-07-20T05:10:02;7.75;;;4.47;;
68653;SDS011;55636;51.108;13.622;2023-07-20T05:11:05;6.22;;;3.85;;
68653;SDS011;55636;51.108;13.622;2023-07-20T05:12:07;4.75;;;4.10;;
68653;SDS011;55636;51.108;13.622;2023-07-20T05:13:10;6.10;;;3.97;;
68653;SDS011;55636;51.108;13.622;2023-07-20T05:14:12;7.18;;;3.80;;
68653;SDS011;55636;51.108;13.622;2023-07-20T05:15:15;6.13;;;4.20;;
68653;SDS011;55636;51.108;13.622;2023-07-20T05:16:17;7.43;;;4.05;;
68653;SDS011;55636;51.108;13.622;2023-07-20T05:17:20;5.90;;;4.13;;
68653;SDS011;55636;51.108;13.622;2023-07-20T05:18:22;7.25;;;4.20;;
68653;SDS011;55636;51.108;13.622;2023-07-20T05:19:26;7.10;;;4.40;;
68653;SDS011;55636;51.108;13.622;2023-07-20T05:20:30;7.53;;;3.80;;
68653;SDS011;55636;51.108;13.622;2023-07-20T05:21:35;10.93;;;4.20;;
68653;SDS011;55636;51.108;13.622;2023-07-20T05:22:38;7.55;;;4.35;;
68653;SDS011;55636;51.108;13.622;2023-07-20T05:23:43;6.72;;;3.95;;
68653;SDS011;55636;51.108;13.622;2023-07-20T05:24:48;5.90;;;4.00;;
68653;SDS011;55636;51.108;13.622;2023-07-20T05:25:54;7.57;;;4.15;;
68653;SDS011;55636;51.108;13.622;2023-07-20T05:26:58;6.72;;;3.83;;
68653;SDS011;55636;51.108;13.622;2023-07-20T05:28:01;8.10;;;4.43;;
68653;SDS011;55636;51.108;13.622;2023-07-20T05:29:03;5.47;;;3.80;;
68653;SDS011;55636;51.108;13.622;2023-07-20T05:30:06;6.72;;;3.90;;
68653;SDS011;55636;51.108;13.622;2023-07-20T05:31:11;5.85;;;3.58;;
68653;SDS011;55636;51.108;13.622;2023-07-20T05:32:14;5.78;;;3.85;;
68653;SDS011;55636;51.108;13.622;2023-07-20T05:33:18;5.68;;;3.72;;
68653;SDS011;55636;51.108;13.622;2023-07-20T05:34:22;6.88;;;3.97;;
68653;SDS011;55636;51.108;13.622;2023-07-20T05:35:25;6.40;;;3.72;;
68653;SDS011;55636;51.108;13.622;2023-07-20T05:36:28;5.72;;;3.78;;
68653;SDS011;55636;51.108;13.622;2023-07-20T05:37:31;6.80;;;3.90;;
68653;SDS011;55636;51.108;13.622;2023-07-20T05:38:34;6.85;;;3.78;;
68653;SDS011;55636;51.108;13.622;2023-07-20T05:39:36;6.32;;;3.90;;
68653;SDS011;55636;51.108;13.622;2023-07-20T05:40:40;5.13;;;3.70;;
68653;SDS011;55636;51.108;13.622;2023-07-20T05:41:43;5.63;;;3.40;;
68653;SDS011;55636;51.108;13.622;2023-07-20T05:42:45;7.10;;;3.80;;
68653;SDS011;55636;51.108;13.622;2023-07-20T05:43:48;5.72;;;3.60;;
68653;SDS011;55636;51.108;13.622;2023-07-20T05:44:51;4.53;;;3.70;;
68653;SDS011;55636;51.108;13.622;2023-07-20T05:45:55;5.95;;;3.88;;
68653;SDS011;55636;51.108;13.622;2023-07-20T05:46:57;6.53;;;3.70;;
68653;SDS011;55636;51.108;13.622;2023-07-20T05:48:00;5.78;;;3.20;;
68653;SDS011;55636;51.108;13.622;2023-07-20T05:49:02;6.80;;;3.50;;
68653;SDS011;55636;51.108;13.622;2023-07-20T05:50:05;5.22;;;3.60;;
68653;SDS011;55636;51.108;13.622;2023-07-20T05:51:08;10.80;;;3.90;;
68653;SDS011;55636;51.108;13.622;2023-07-20T05:52:11;5.47;;;3.53;;
68653;SDS011;55636;51.108;13.622;2023-07-20T05:53:14;6.47;;;3.97;;
68653;SDS011;55636;51.108;13.622;2023-07-20T05:54:16;5.28;;;3.70;;
68653;SDS011;55636;51.108;13.622;2023-07-20T05:55:18;3.67;;;3.20;;
68653;SDS011;55636;51.108;13.622;2023-07-20T05:56:21;5.88;;;3.55;;
68653;SDS011;55636;51.108;13.622;2023-07-20T05:57:24;6.07;;;3.47;;
68653;SDS011;55636;51.108;13.622;2023-07-20T05:58:27;4.97;;;3.70;;
68653;SDS011;55636;51.108;13.622;2023-07-20T05:59:29;6.47;;;3.80;;
68653;SDS011;55636;51.108;13.622;2023-07-20T06:00:31;5.28;;;3.70;;
68653;SDS011;55636;51.108;13.622;2023-07-20T06:01:34;5.70;;;3.95;;
68653;SDS011;55636;51.108;13.622;2023-07-20T06:02:36;7.38;;;4.13;;
68653;SDS011;55636;51.108;13.622;2023-07-20T06:03:39;5.70;;;3.50;;
68653;SDS011;55636;51.108;13.622;2023-07-20T06:04:41;5.60;;;3.75;;
68653;SDS011;55636;51.108;13.622;2023-07-20T06:05:45;4.47;;;3.60;;
68653;SDS011;55636;51.108;13.622;2023-07-20T06:06:48;5.85;;;3.53;;
68653;SDS011;55636;51.108;13.622;2023-07-20T06:07:51;49.50;;;11.13;;
68653;SDS011;55636;51.108;13.622;2023-07-20T06:08:54;36.05;;;8.90;;
68653;SDS011;55636;51.108;13.622;2023-07-20T06:09:56;12.90;;;5.10;;
68653;SDS011;55636;51.108;13.622;2023-07-20T06:11:00;5.05;;;3.50;;
68653;SDS011;55636;51.108;13.622;2023-07-20T06:12:02;5.43;;;3.58;;
68653;SDS011;55636;51.108;13.622;2023-07-20T06:13:05;4.50;;;3.20;;
68653;SDS011;55636;51.108;13.622;2023-07-20T06:14:08;3.78;;;3.10;;
68653;SDS011;55636;51.108;13.622;2023-07-20T06:15:25;4.90;;;3.40;;
68653;SDS011;55636;51.108;13.622;2023-07-20T06:16:28;4.43;;;2.75;;
68653;SDS011;55636;51.108;13.622;2023-07-20T06:17:31;3.47;;;3.05;;
68653;SDS011;55636;51.108;13.622;2023-07-20T06:18:33;3.65;;;2.70;;
68653;SDS011;55636;51.108;13.622;2023-07-20T06:19:36;5.10;;;3.28;;
68653;SDS011;55636;51.108;13.622;2023-07-20T06:20:38;3.47;;;3.05;;
68653;SDS011;55636;51.108;13.622;2023-07-20T06:21:40;5.85;;;3.15;;
68653;SDS011;55636;51.108;13.622;2023-07-20T06:22:44;5.65;;;3.05;;
68653;SDS011;55636;51.108;13.622;2023-07-20T06:23:46;6.13;;;2.72;;
68653;SDS011;55636;51.108;13.622;2023-07-20T06:24:50;3.13;;;2.60;;
68653;SDS011;55636;51.108;13.622;2023-07-20T06:25:52;3.97;;;2.80;;